createdAt,value
2022-10-12T00:04:01.017Z,0.38
2022-10-12T00:14:02.507Z,0.28
2022-10-12T00:24:04.343Z,0.43
2022-10-12T00:34:05.730Z,0.20
2022-10-12T00:44:36.769Z,0.20
2022-10-12T00:54:42.005Z,0.10
2022-10-12T01:14:44.902Z,0.20
2022-10-12T01:24:57.078Z,0.25
2022-10-12T01:35:19.691Z,0.50
2022-10-12T01:45:21.583Z,0.55
2022-10-12T01:55:34.037Z,0.20
2022-10-12T02:05:52.050Z,0.10
2022-10-12T02:15:54.322Z,0.22
2022-10-12T02:25:56.399Z,1.00
2022-10-12T02:36:04.635Z,0.50
2022-10-12T02:46:08.899Z,0.20
2022-10-12T02:56:13.180Z,0.20
2022-10-12T03:06:14.661Z,0.35
2022-10-12T03:16:16.109Z,0.50
2022-10-12T03:26:17.489Z,0.45
2022-10-12T03:36:19.302Z,0.38
2022-10-12T03:46:20.726Z,0.25
2022-10-12T03:56:22.141Z,0.25
2022-10-12T04:06:23.685Z,0.80
2022-10-12T04:16:27.410Z,0.20
2022-10-12T04:26:31.775Z,0.65
2022-10-12T04:36:33.224Z,1.75
2022-10-12T04:46:34.722Z,2.13
2022-10-12T04:56:36.178Z,1.45
2022-10-12T05:06:37.581Z,2.10
2022-10-12T05:16:39.211Z,1.48
2022-10-12T05:26:40.623Z,1.25
2022-10-12T05:36:42.011Z,1.73
2022-10-12T05:46:43.490Z,0.80
2022-10-12T05:56:45.005Z,1.02
2022-10-12T06:06:46.554Z,1.60
2022-10-12T06:16:51.131Z,1.05
2022-10-12T06:26:55.851Z,1.17
2022-10-12T06:37:01.618Z,1.17
2022-10-12T06:47:03.567Z,1.35
2022-10-12T06:57:05.931Z,1.00
2022-10-12T07:07:07.325Z,1.55
2022-10-12T07:17:08.810Z,0.80
2022-10-12T07:27:10.826Z,1.65
2022-10-12T07:37:13.211Z,1.20
2022-10-12T07:47:16.767Z,0.95
2022-10-12T07:57:18.266Z,1.08
2022-10-12T08:07:19.649Z,1.17
2022-10-12T08:17:21.085Z,1.20
2022-10-12T08:27:22.566Z,1.27
2022-10-12T08:37:24.051Z,2.63
2022-10-12T08:47:36.876Z,1.27
2022-10-12T08:57:39.558Z,1.77
2022-10-12T09:08:07.205Z,2.13
2022-10-12T09:18:17.828Z,1.08
2022-10-12T09:28:27.140Z,1.05
2022-10-12T09:38:28.598Z,0.50
2022-10-12T09:48:30.023Z,1.30
2022-10-12T09:58:37.711Z,0.90
2022-10-12T10:08:41.865Z,1.08
2022-10-12T10:18:55.555Z,1.70
2022-10-12T10:29:24.415Z,0.80
2022-10-12T10:39:27.926Z,0.77
2022-10-12T10:49:47.182Z,1.52
2022-10-12T10:59:54.119Z,0.60
2022-10-12T11:09:57.949Z,1.37
2022-10-12T11:20:25.992Z,0.60
2022-10-12T11:30:31.222Z,0.60
2022-10-12T11:51:01.283Z,0.60
2022-10-12T12:01:31.522Z,0.47
2022-10-12T12:11:34.554Z,0.57
2022-10-12T12:22:10.008Z,0.57
2022-10-12T12:32:11.473Z,0.40
2022-10-12T12:42:25.284Z,0.60
2022-10-12T12:52:33.963Z,1.48
2022-10-12T13:02:53.456Z,0.70
2022-10-12T13:13:16.723Z,0.50
2022-10-12T13:23:21.513Z,0.40
2022-10-12T13:33:33.022Z,0.73
2022-10-12T13:43:58.878Z,1.00
2022-10-12T13:54:00.323Z,1.13
2022-10-12T14:04:04.545Z,0.68
2022-10-12T14:14:06.476Z,1.00
2022-10-12T14:24:09.007Z,0.50
2022-10-12T14:34:50.375Z,1.13
2022-10-12T14:44:52.047Z,0.40
2022-10-12T15:04:58.311Z,2.50
2022-10-12T15:15:01.448Z,4.18
2022-10-12T15:25:16.794Z,4.60
2022-10-12T15:45:27.062Z,3.77
2022-10-12T15:55:29.835Z,2.80
2022-10-12T16:05:32.937Z,3.88
2022-10-12T16:15:35.768Z,6.22
2022-10-12T16:25:37.160Z,4.95
2022-10-12T16:35:39.921Z,3.83
2022-10-12T16:45:41.361Z,4.60
2022-10-12T16:55:42.831Z,6.20
2022-10-12T17:05:44.294Z,5.10
2022-10-12T17:15:46.954Z,3.90
2022-10-12T17:25:49.893Z,3.53
2022-10-12T17:35:51.351Z,3.67
2022-10-12T17:45:52.838Z,4.63
2022-10-12T17:55:58.850Z,3.53
2022-10-12T18:06:04.842Z,4.88
2022-10-12T18:16:10.831Z,4.47
2022-10-12T18:26:13.658Z,3.00
2022-10-12T18:36:15.979Z,3.55
2022-10-12T18:46:18.471Z,3.10
2022-10-12T18:56:20.083Z,2.88
2022-10-12T19:06:24.034Z,3.92
2022-10-12T19:16:25.902Z,3.67
2022-10-12T19:26:27.881Z,2.45
2022-10-12T19:36:30.409Z,3.50
2022-10-12T19:46:31.942Z,4.22
2022-10-12T19:56:33.983Z,3.25
2022-10-12T20:06:36.325Z,2.58
2022-10-12T20:16:37.813Z,2.85
2022-10-12T20:26:39.320Z,2.55
2022-10-12T20:36:40.814Z,3.17
2022-10-12T20:46:45.545Z,2.17
2022-10-12T20:56:49.479Z,3.77
2022-10-12T21:06:50.935Z,1.85
2022-10-12T21:16:52.970Z,3.10
2022-10-12T21:26:54.483Z,2.45
2022-10-12T21:36:56.609Z,2.25
2022-10-12T21:46:57.998Z,2.25
2022-10-12T21:56:59.392Z,2.22
2022-10-12T22:07:02.543Z,1.77
2022-10-12T22:17:03.964Z,1.83
2022-10-12T22:27:07.218Z,1.90
2022-10-12T22:37:08.662Z,2.50
2022-10-12T22:47:10.541Z,1.83
2022-10-12T22:57:12.447Z,1.58
2022-10-12T23:07:13.871Z,1.35
2022-10-12T23:17:15.330Z,1.65
2022-10-12T23:27:16.883Z,1.17
2022-10-12T23:37:19.054Z,1.92
2022-10-12T23:47:20.858Z,1.70
2022-10-12T23:57:44.970Z,1.58
